sensor_id;sensor_type;location;lat;lon;timestamp;P1;durP1;ratioP1;P2;durP2;ratioP2
59492;SDS011;45497;43.996;22.876;2022-10-16T00:00:27;10.80;;;5.37;;
59492;SDS011;45497;43.996;22.876;2022-10-16T00:02:52;6.93;;;5.40;;
59492;SDS011;45497;43.996;22.876;2022-10-16T00:10:26;9.43;;;5.40;;
59492;SDS011;45497;43.996;22.876;2022-10-16T00:14:42;9.30;;;5.53;;
59492;SDS011;45497;43.996;22.876;2022-10-16T00:17:09;8.23;;;5.35;;
59492;SDS011;45497;43.996;22.876;2022-10-16T00:19:34;9.40;;;5.70;;
59492;SDS011;45497;43.996;22.876;2022-10-16T00:22:00;10.18;;;5.50;;
59492;SDS011;45497;43.996;22.876;2022-10-16T00:24:25;8.60;;;5.03;;
59492;SDS011;45497;43.996;22.876;2022-10-16T00:28:27;8.30;;;5.40;;
59492;SDS011;45497;43.996;22.876;2022-10-16T00:30:52;10.00;;;5.43;;
59492;SDS011;45497;43.996;22.876;2022-10-16T00:33:18;7.82;;;5.85;;
59492;SDS011;45497;43.996;22.876;2022-10-16T00:35:44;6.85;;;5.18;;
59492;SDS011;45497;43.996;22.876;2022-10-16T00:40:55;9.20;;;5.22;;
59492;SDS011;45497;43.996;22.876;2022-10-16T00:51:21;10.60;;;5.25;;
59492;SDS011;45497;43.996;22.876;2022-10-16T00:53:51;8.13;;;5.25;;
59492;SDS011;45497;43.996;22.876;2022-10-16T00:58:31;10.13;;;5.70;;
59492;SDS011;45497;43.996;22.876;2022-10-16T01:05:45;8.82;;;5.32;;
59492;SDS011;45497;43.996;22.876;2022-10-16T01:08:25;12.20;;;5.88;;
59492;SDS011;45497;43.996;22.876;2022-10-16T01:11:22;10.48;;;5.40;;
59492;SDS011;45497;43.996;22.876;2022-10-16T01:13:55;9.32;;;5.53;;
59492;SDS011;45497;43.996;22.876;2022-10-16T01:20:00;12.52;;;5.82;;
59492;SDS011;45497;43.996;22.876;2022-10-16T01:22:05;8.43;;;5.27;;
59492;SDS011;45497;43.996;22.876;2022-10-16T01:25:02;8.43;;;5.63;;
59492;SDS011;45497;43.996;22.876;2022-10-16T01:27:34;9.65;;;5.28;;
59492;SDS011;45497;43.996;22.876;2022-10-16T01:30:07;11.40;;;5.83;;
59492;SDS011;45497;43.996;22.876;2022-10-16T01:35:15;6.32;;;5.18;;
59492;SDS011;45497;43.996;22.876;2022-10-16T01:37:44;10.38;;;5.05;;
59492;SDS011;45497;43.996;22.876;2022-10-16T01:40:15;7.90;;;5.30;;
59492;SDS011;45497;43.996;22.876;2022-10-16T01:42:44;9.00;;;5.53;;
59492;SDS011;45497;43.996;22.876;2022-10-16T01:45:14;12.73;;;5.60;;
59492;SDS011;45497;43.996;22.876;2022-10-16T01:51:01;9.75;;;5.45;;
59492;SDS011;45497;43.996;22.876;2022-10-16T01:55:57;8.98;;;5.60;;
59492;SDS011;45497;43.996;22.876;2022-10-16T01:58:24;11.55;;;6.05;;
59492;SDS011;45497;43.996;22.876;2022-10-16T02:00:52;10.07;;;6.28;;
59492;SDS011;45497;43.996;22.876;2022-10-16T02:03:20;8.37;;;5.57;;
59492;SDS011;45497;43.996;22.876;2022-10-16T02:05:47;8.55;;;5.47;;
59492;SDS011;45497;43.996;22.876;2022-10-16T02:10:03;9.30;;;6.13;;
59492;SDS011;45497;43.996;22.876;2022-10-16T02:12:33;10.68;;;6.28;;
59492;SDS011;45497;43.996;22.876;2022-10-16T02:15:05;9.07;;;6.00;;
59492;SDS011;45497;43.996;22.876;2022-10-16T02:17:31;8.73;;;5.80;;
59492;SDS011;45497;43.996;22.876;2022-10-16T02:24:11;9.90;;;5.68;;
59492;SDS011;45497;43.996;22.876;2022-10-16T02:26:40;8.65;;;5.63;;
59492;SDS011;45497;43.996;22.876;2022-10-16T02:29:22;6.95;;;5.57;;
59492;SDS011;45497;43.996;22.876;2022-10-16T02:34:13;8.88;;;5.47;;
59492;SDS011;45497;43.996;22.876;2022-10-16T02:36:40;11.35;;;5.50;;
59492;SDS011;45497;43.996;22.876;2022-10-16T02:39:08;8.38;;;5.50;;
59492;SDS011;45497;43.996;22.876;2022-10-16T02:41:35;9.98;;;6.22;;
59492;SDS011;45497;43.996;22.876;2022-10-16T02:44:01;10.65;;;5.90;;
59492;SDS011;45497;43.996;22.876;2022-10-16T02:46:26;9.53;;;6.03;;
59492;SDS011;45497;43.996;22.876;2022-10-16T02:48:52;8.03;;;5.80;;
59492;SDS011;45497;43.996;22.876;2022-10-16T02:51:18;9.75;;;5.95;;
59492;SDS011;45497;43.996;22.876;2022-10-16T02:53:43;11.03;;;6.23;;
59492;SDS011;45497;43.996;22.876;2022-10-16T02:56:09;10.83;;;6.17;;
59492;SDS011;45497;43.996;22.876;2022-10-16T02:58:34;13.52;;;6.45;;
59492;SDS011;45497;43.996;22.876;2022-10-16T03:02:02;11.02;;;6.53;;
59492;SDS011;45497;43.996;22.876;2022-10-16T03:04:27;9.00;;;5.78;;
59492;SDS011;45497;43.996;22.876;2022-10-16T03:06:53;8.93;;;6.20;;
59492;SDS011;45497;43.996;22.876;2022-10-16T03:10:24;11.18;;;5.93;;
59492;SDS011;45497;43.996;22.876;2022-10-16T03:12:49;8.15;;;6.00;;
59492;SDS011;45497;43.996;22.876;2022-10-16T03:15:15;9.07;;;6.30;;
59492;SDS011;45497;43.996;22.876;2022-10-16T03:18:40;9.57;;;6.25;;
59492;SDS011;45497;43.996;22.876;2022-10-16T03:21:05;10.18;;;6.70;;
59492;SDS011;45497;43.996;22.876;2022-10-16T03:25:37;9.82;;;6.40;;
59492;SDS011;45497;43.996;22.876;2022-10-16T03:28:03;11.35;;;6.57;;
59492;SDS011;45497;43.996;22.876;2022-10-16T03:30:29;10.18;;;6.60;;
59492;SDS011;45497;43.996;22.876;2022-10-16T03:32:55;10.90;;;6.55;;
59492;SDS011;45497;43.996;22.876;2022-10-16T03:35:21;8.60;;;6.20;;
59492;SDS011;45497;43.996;22.876;2022-10-16T03:37:47;11.07;;;6.47;;
59492;SDS011;45497;43.996;22.876;2022-10-16T03:42:27;10.45;;;6.80;;
59492;SDS011;45497;43.996;22.876;2022-10-16T03:44:53;9.05;;;7.15;;
59492;SDS011;45497;43.996;22.876;2022-10-16T03:48:27;10.30;;;6.88;;
59492;SDS011;45497;43.996;22.876;2022-10-16T03:53:34;13.90;;;7.50;;
59492;SDS011;45497;43.996;22.876;2022-10-16T03:56:00;13.98;;;7.95;;
59492;SDS011;45497;43.996;22.876;2022-10-16T03:58:25;12.40;;;7.70;;
59492;SDS011;45497;43.996;22.876;2022-10-16T04:00:51;11.70;;;8.00;;
59492;SDS011;45497;43.996;22.876;2022-10-16T04:03:16;11.20;;;7.53;;
59492;SDS011;45497;43.996;22.876;2022-10-16T04:05:58;9.85;;;7.53;;
59492;SDS011;45497;43.996;22.876;2022-10-16T04:08:23;12.23;;;7.78;;
59492;SDS011;45497;43.996;22.876;2022-10-16T04:12:02;14.35;;;8.35;;
59492;SDS011;45497;43.996;22.876;2022-10-16T04:14:28;13.45;;;8.27;;
59492;SDS011;45497;43.996;22.876;2022-10-16T04:16:53;11.30;;;7.90;;
59492;SDS011;45497;43.996;22.876;2022-10-16T04:19:18;11.63;;;8.23;;
59492;SDS011;45497;43.996;22.876;2022-10-16T04:21:44;11.43;;;8.33;;
59492;SDS011;45497;43.996;22.876;2022-10-16T04:24:09;10.67;;;8.47;;
59492;SDS011;45497;43.996;22.876;2022-10-16T04:26:36;12.93;;;8.73;;
59492;SDS011;45497;43.996;22.876;2022-10-16T04:29:02;17.70;;;8.40;;
59492;SDS011;45497;43.996;22.876;2022-10-16T04:31:27;8.47;;;7.43;;
59492;SDS011;45497;43.996;22.876;2022-10-16T04:33:53;9.17;;;7.90;;
59492;SDS011;45497;43.996;22.876;2022-10-16T04:36:18;10.75;;;7.25;;
59492;SDS011;45497;43.996;22.876;2022-10-16T04:38:44;13.13;;;7.77;;
59492;SDS011;45497;43.996;22.876;2022-10-16T04:41:09;12.23;;;8.37;;
59492;SDS011;45497;43.996;22.876;2022-10-16T04:43:35;11.97;;;7.90;;
59492;SDS011;45497;43.996;22.876;2022-10-16T04:46:00;11.77;;;7.50;;
59492;SDS011;45497;43.996;22.876;2022-10-16T04:48:26;12.40;;;7.43;;
59492;SDS011;45497;43.996;22.876;2022-10-16T04:50:52;12.77;;;8.15;;
59492;SDS011;45497;43.996;22.876;2022-10-16T04:53:17;12.53;;;8.03;;
59492;SDS011;45497;43.996;22.876;2022-10-16T04:55:43;11.50;;;8.23;;
59492;SDS011;45497;43.996;22.876;2022-10-16T04:58:09;12.00;;;8.60;;
59492;SDS011;45497;43.996;22.876;2022-10-16T05:00:34;12.77;;;9.13;;
59492;SDS011;45497;43.996;22.876;2022-10-16T05:03:00;13.17;;;7.80;;
59492;SDS011;45497;43.996;22.876;2022-10-16T05:05:26;9.13;;;7.25;;
59492;SDS011;45497;43.996;22.876;2022-10-16T05:07:53;10.77;;;8.00;;
59492;SDS011;45497;43.996;22.876;2022-10-16T05:10:18;9.97;;;7.53;;
59492;SDS011;45497;43.996;22.876;2022-10-16T05:12:44;13.87;;;8.10;;
59492;SDS011;45497;43.996;22.876;2022-10-16T05:15:09;12.75;;;9.00;;
59492;SDS011;45497;43.996;22.876;2022-10-16T05:19:31;15.60;;;10.57;;
59492;SDS011;45497;43.996;22.876;2022-10-16T05:21:57;14.50;;;9.90;;
59492;SDS011;45497;43.996;22.876;2022-10-16T05:24:22;11.75;;;8.70;;
59492;SDS011;45497;43.996;22.876;2022-10-16T05:26:48;12.70;;;8.50;;
59492;SDS011;45497;43.996;22.876;2022-10-16T05:29:15;11.20;;;7.88;;
59492;SDS011;45497;43.996;22.876;2022-10-16T05:31:40;11.70;;;7.55;;
59492;SDS011;45497;43.996;22.876;2022-10-16T05:34:06;12.43;;;7.80;;
59492;SDS011;45497;43.996;22.876;2022-10-16T05:38:38;13.50;;;7.72;;
59492;SDS011;45497;43.996;22.876;2022-10-16T05:41:04;11.27;;;7.60;;
59492;SDS011;45497;43.996;22.876;2022-10-16T05:43:30;13.83;;;8.13;;
59492;SDS011;45497;43.996;22.876;2022-10-16T05:45:58;12.80;;;8.18;;
59492;SDS011;45497;43.996;22.876;2022-10-16T05:48:29;11.45;;;7.97;;
59492;SDS011;45497;43.996;22.876;2022-10-16T05:50:59;9.93;;;7.60;;
59492;SDS011;45497;43.996;22.876;2022-10-16T05:53:36;10.25;;;7.78;;
59492;SDS011;45497;43.996;22.876;2022-10-16T05:56:03;13.70;;;7.68;;
59492;SDS011;45497;43.996;22.876;2022-10-16T05:58:30;11.50;;;8.13;;
59492;SDS011;45497;43.996;22.876;2022-10-16T06:01:05;18.75;;;8.48;;
59492;SDS011;45497;43.996;22.876;2022-10-16T06:03:32;9.43;;;7.55;;
59492;SDS011;45497;43.996;22.876;2022-10-16T06:05:58;9.85;;;7.20;;
59492;SDS011;45497;43.996;22.876;2022-10-16T06:08:24;11.02;;;7.78;;
59492;SDS011;45497;43.996;22.876;2022-10-16T06:11:17;13.48;;;8.30;;
59492;SDS011;45497;43.996;22.876;2022-10-16T06:13:44;18.05;;;9.13;;
59492;SDS011;45497;43.996;22.876;2022-10-16T06:16:11;11.50;;;8.38;;
59492;SDS011;45497;43.996;22.876;2022-10-16T06:18:37;14.68;;;8.30;;
59492;SDS011;45497;43.996;22.876;2022-10-16T06:21:10;14.87;;;8.47;;
59492;SDS011;45497;43.996;22.876;2022-10-16T06:23:37;10.13;;;7.70;;
59492;SDS011;45497;43.996;22.876;2022-10-16T06:26:10;14.90;;;9.37;;
59492;SDS011;45497;43.996;22.876;2022-10-16T06:28:37;13.40;;;9.13;;
59492;SDS011;45497;43.996;22.876;2022-10-16T06:31:04;11.38;;;8.30;;
59492;SDS011;45497;43.996;22.876;2022-10-16T06:35:16;15.50;;;8.32;;
59492;SDS011;45497;43.996;22.876;2022-10-16T06:37:41;15.93;;;10.07;;
59492;SDS011;45497;43.996;22.876;2022-10-16T06:40:07;15.63;;;8.93;;
59492;SDS011;45497;43.996;22.876;2022-10-16T06:43:21;16.10;;;8.77;;
59492;SDS011;45497;43.996;22.876;2022-10-16T06:45:53;18.17;;;8.70;;
59492;SDS011;45497;43.996;22.876;2022-10-16T06:48:20;13.50;;;8.70;;
59492;SDS011;45497;43.996;22.876;2022-10-16T06:50:59;12.80;;;8.32;;
59492;SDS011;45497;43.996;22.876;2022-10-16T06:53:29;12.75;;;8.68;;
59492;SDS011;45497;43.996;22.876;2022-10-16T06:55:56;15.93;;;9.33;;
59492;SDS011;45497;43.996;22.876;2022-10-16T06:58:22;16.53;;;10.30;;
59492;SDS011;45497;43.996;22.876;2022-10-16T07:00:48;14.07;;;9.60;;
59492;SDS011;45497;43.996;22.876;2022-10-16T07:03:14;15.07;;;9.60;;
59492;SDS011;45497;43.996;22.876;2022-10-16T07:05:51;16.00;;;10.07;;
59492;SDS011;45497;43.996;22.876;2022-10-16T07:08:17;16.25;;;10.30;;
59492;SDS011;45497;43.996;22.876;2022-10-16T07:10:42;17.23;;;10.43;;
59492;SDS011;45497;43.996;22.876;2022-10-16T07:13:08;15.98;;;9.93;;
59492;SDS011;45497;43.996;22.876;2022-10-16T07:15:33;14.63;;;9.67;;
59492;SDS011;45497;43.996;22.876;2022-10-16T07:17:59;16.03;;;10.10;;
59492;SDS011;45497;43.996;22.876;2022-10-16T07:20:24;17.70;;;10.37;;
59492;SDS011;45497;43.996;22.876;2022-10-16T07:22:50;19.30;;;10.10;;
59492;SDS011;45497;43.996;22.876;2022-10-16T07:25:17;17.08;;;11.38;;
59492;SDS011;45497;43.996;22.876;2022-10-16T07:27:42;16.52;;;11.25;;
59492;SDS011;45497;43.996;22.876;2022-10-16T07:30:08;15.67;;;10.10;;
59492;SDS011;45497;43.996;22.876;2022-10-16T07:32:34;16.70;;;9.55;;
59492;SDS011;45497;43.996;22.876;2022-10-16T07:37:03;15.15;;;9.85;;
59492;SDS011;45497;43.996;22.876;2022-10-16T07:41:22;16.33;;;10.63;;
59492;SDS011;45497;43.996;22.876;2022-10-16T07:43:51;15.23;;;10.63;;
59492;SDS011;45497;43.996;22.876;2022-10-16T07:46:18;16.08;;;10.77;;
59492;SDS011;45497;43.996;22.876;2022-10-16T07:48:45;20.13;;;11.18;;
59492;SDS011;45497;43.996;22.876;2022-10-16T07:51:13;14.40;;;9.98;;
59492;SDS011;45497;43.996;22.876;2022-10-16T07:53:40;16.80;;;10.63;;
59492;SDS011;45497;43.996;22.876;2022-10-16T07:56:06;17.75;;;10.43;;
59492;SDS011;45497;43.996;22.876;2022-10-16T07:58:32;20.30;;;10.95;;
59492;SDS011;45497;43.996;22.876;2022-10-16T08:01:02;14.40;;;10.52;;
59492;SDS011;45497;43.996;22.876;2022-10-16T08:03:29;14.73;;;10.43;;
59492;SDS011;45497;43.996;22.876;2022-10-16T08:05:56;17.58;;;11.40;;
59492;SDS011;45497;43.996;22.876;2022-10-16T08:08:23;17.67;;;10.55;;
59492;SDS011;45497;43.996;22.876;2022-10-16T08:10:48;16.77;;;10.53;;
59492;SDS011;45497;43.996;22.876;2022-10-16T08:13:14;16.90;;;10.48;;
59492;SDS011;45497;43.996;22.876;2022-10-16T08:15:41;15.93;;;10.45;;
59492;SDS011;45497;43.996;22.876;2022-10-16T08:18:07;17.77;;;10.57;;
59492;SDS011;45497;43.996;22.876;2022-10-16T08:20:34;15.15;;;10.07;;
59492;SDS011;45497;43.996;22.876;2022-10-16T08:23:00;14.38;;;10.38;;
59492;SDS011;45497;43.996;22.876;2022-10-16T08:25:26;16.95;;;9.73;;
59492;SDS011;45497;43.996;22.876;2022-10-16T08:27:52;17.42;;;10.05;;
59492;SDS011;45497;43.996;22.876;2022-10-16T08:30:18;16.53;;;9.53;;
59492;SDS011;45497;43.996;22.876;2022-10-16T08:32:45;17.85;;;9.93;;
59492;SDS011;45497;43.996;22.876;2022-10-16T08:35:10;15.90;;;10.33;;
59492;SDS011;45497;43.996;22.876;2022-10-16T08:37:37;14.20;;;9.93;;
59492;SDS011;45497;43.996;22.876;2022-10-16T08:40:04;15.95;;;10.18;;
59492;SDS011;45497;43.996;22.876;2022-10-16T08:50:26;13.70;;;9.70;;
59492;SDS011;45497;43.996;22.876;2022-10-16T08:52:54;17.00;;;10.27;;
59492;SDS011;45497;43.996;22.876;2022-10-16T08:57:58;15.68;;;9.98;;
59492;SDS011;45497;43.996;22.876;2022-10-16T09:00:25;17.25;;;11.07;;
59492;SDS011;45497;43.996;22.876;2022-10-16T09:03:07;18.95;;;9.90;;
59492;SDS011;45497;43.996;22.876;2022-10-16T09:23:35;17.00;;;10.23;;
59492;SDS011;45497;43.996;22.876;2022-10-16T09:25:44;14.18;;;9.98;;
59492;SDS011;45497;43.996;22.876;2022-10-16T09:28:12;15.68;;;10.27;;
59492;SDS011;45497;43.996;22.876;2022-10-16T09:30:38;16.50;;;9.63;;
59492;SDS011;45497;43.996;22.876;2022-10-16T09:33:04;15.15;;;10.50;;
59492;SDS011;45497;43.996;22.876;2022-10-16T09:35:32;16.20;;;9.70;;
59492;SDS011;45497;43.996;22.876;2022-10-16T09:39:43;13.00;;;9.52;;
59492;SDS011;45497;43.996;22.876;2022-10-16T09:42:11;14.15;;;9.73;;
59492;SDS011;45497;43.996;22.876;2022-10-16T09:49:39;13.85;;;9.38;;
59492;SDS011;45497;43.996;22.876;2022-10-16T09:52:16;12.60;;;9.00;;
59492;SDS011;45497;43.996;22.876;2022-10-16T09:57:19;15.45;;;9.18;;
59492;SDS011;45497;43.996;22.876;2022-10-16T09:59:50;14.93;;;9.27;;
59492;SDS011;45497;43.996;22.876;2022-10-16T10:02:18;12.10;;;8.10;;
59492;SDS011;45497;43.996;22.876;2022-10-16T10:04:51;13.93;;;8.63;;
59492;SDS011;45497;43.996;22.876;2022-10-16T10:07:31;12.77;;;8.98;;
59492;SDS011;45497;43.996;22.876;2022-10-16T10:10:01;13.57;;;8.00;;
59492;SDS011;45497;43.996;22.876;2022-10-16T10:12:30;16.98;;;8.38;;
59492;SDS011;45497;43.996;22.876;2022-10-16T10:17:31;15.95;;;8.30;;
59492;SDS011;45497;43.996;22.876;2022-10-16T10:38:43;14.33;;;7.13;;
59492;SDS011;45497;43.996;22.876;2022-10-16T10:43:10;11.13;;;6.85;;
59492;SDS011;45497;43.996;22.876;2022-10-16T10:45:43;9.68;;;6.07;;
59492;SDS011;45497;43.996;22.876;2022-10-16T10:50:51;10.02;;;5.90;;
59492;SDS011;45497;43.996;22.876;2022-10-16T10:59:53;10.77;;;5.95;;
59492;SDS011;45497;43.996;22.876;2022-10-16T11:02:20;10.82;;;5.60;;
59492;SDS011;45497;43.996;22.876;2022-10-16T11:09:48;10.60;;;5.23;;
59492;SDS011;45497;43.996;22.876;2022-10-16T11:17:32;9.85;;;4.85;;
59492;SDS011;45497;43.996;22.876;2022-10-16T11:20:05;6.28;;;4.13;;
59492;SDS011;45497;43.996;22.876;2022-10-16T11:23:08;9.10;;;4.40;;
59492;SDS011;45497;43.996;22.876;2022-10-16T11:25:45;8.43;;;4.10;;
59492;SDS011;45497;43.996;22.876;2022-10-16T11:30:03;8.32;;;3.95;;
59492;SDS011;45497;43.996;22.876;2022-10-16T11:37:33;7.82;;;4.00;;
59492;SDS011;45497;43.996;22.876;2022-10-16T11:40:31;7.40;;;4.28;;
59492;SDS011;45497;43.996;22.876;2022-10-16T11:43:32;10.35;;;4.10;;
59492;SDS011;45497;43.996;22.876;2022-10-16T11:45:54;7.03;;;4.17;;
59492;SDS011;45497;43.996;22.876;2022-10-16T11:48:39;6.90;;;3.92;;
59492;SDS011;45497;43.996;22.876;2022-10-16T11:56:46;8.25;;;4.13;;
59492;SDS011;45497;43.996;22.876;2022-10-16T12:00:18;6.20;;;3.80;;
59492;SDS011;45497;43.996;22.876;2022-10-16T12:02:33;5.97;;;3.58;;
59492;SDS011;45497;43.996;22.876;2022-10-16T12:07:22;7.82;;;3.80;;
59492;SDS011;45497;43.996;22.876;2022-10-16T12:09:53;5.70;;;3.63;;
59492;SDS011;45497;43.996;22.876;2022-10-16T12:17:37;8.80;;;3.70;;
59492;SDS011;45497;43.996;22.876;2022-10-16T12:22:42;8.23;;;4.15;;
59492;SDS011;45497;43.996;22.876;2022-10-16T12:27:57;8.43;;;3.93;;
59492;SDS011;45497;43.996;22.876;2022-10-16T12:30:32;7.55;;;3.72;;
59492;SDS011;45497;43.996;22.876;2022-10-16T12:33:22;5.85;;;3.60;;
59492;SDS011;45497;43.996;22.876;2022-10-16T12:35:45;5.60;;;3.50;;
59492;SDS011;45497;43.996;22.876;2022-10-16T12:38:16;6.78;;;3.65;;
59492;SDS011;45497;43.996;22.876;2022-10-16T12:40:47;7.45;;;3.83;;
59492;SDS011;45497;43.996;22.876;2022-10-16T12:43:37;7.23;;;3.83;;
59492;SDS011;45497;43.996;22.876;2022-10-16T12:48:33;5.27;;;3.50;;
59492;SDS011;45497;43.996;22.876;2022-10-16T12:53:58;5.83;;;3.47;;
59492;SDS011;45497;43.996;22.876;2022-10-16T12:56:35;4.40;;;3.25;;
59492;SDS011;45497;43.996;22.876;2022-10-16T13:10:42;7.70;;;3.15;;
59492;SDS011;45497;43.996;22.876;2022-10-16T13:26:46;7.03;;;3.63;;
59492;SDS011;45497;43.996;22.876;2022-10-16T13:29:19;6.10;;;3.35;;
59492;SDS011;45497;43.996;22.876;2022-10-16T13:31:45;5.22;;;3.47;;
59492;SDS011;45497;43.996;22.876;2022-10-16T13:34:16;7.07;;;3.35;;
59492;SDS011;45497;43.996;22.876;2022-10-16T13:36:48;6.57;;;3.50;;
59492;SDS011;45497;43.996;22.876;2022-10-16T13:41:46;7.53;;;3.67;;
59492;SDS011;45497;43.996;22.876;2022-10-16T13:44:25;6.55;;;3.30;;
59492;SDS011;45497;43.996;22.876;2022-10-16T13:47:24;6.70;;;3.35;;
59492;SDS011;45497;43.996;22.876;2022-10-16T13:50:09;4.47;;;2.97;;
59492;SDS011;45497;43.996;22.876;2022-10-16T13:52:37;7.05;;;3.38;;
59492;SDS011;45497;43.996;22.876;2022-10-16T13:55:24;8.45;;;3.45;;
59492;SDS011;45497;43.996;22.876;2022-10-16T13:57:49;6.80;;;3.20;;
59492;SDS011;45497;43.996;22.876;2022-10-16T14:00:21;7.90;;;3.00;;
59492;SDS011;45497;43.996;22.876;2022-10-16T14:02:55;5.70;;;3.20;;
59492;SDS011;45497;43.996;22.876;2022-10-16T14:05:26;6.03;;;3.45;;
59492;SDS011;45497;43.996;22.876;2022-10-16T14:07:51;4.60;;;3.00;;
59492;SDS011;45497;43.996;22.876;2022-10-16T14:10:25;6.32;;;3.53;;
59492;SDS011;45497;43.996;22.876;2022-10-16T14:13:04;7.00;;;3.30;;
59492;SDS011;45497;43.996;22.876;2022-10-16T14:15:32;6.70;;;3.20;;
59492;SDS011;45497;43.996;22.876;2022-10-16T14:18:00;5.32;;;3.20;;
59492;SDS011;45497;43.996;22.876;2022-10-16T14:20:27;6.68;;;3.28;;
59492;SDS011;45497;43.996;22.876;2022-10-16T14:23:03;7.40;;;3.40;;
59492;SDS011;45497;43.996;22.876;2022-10-16T14:25:49;6.00;;;3.40;;
59492;SDS011;45497;43.996;22.876;2022-10-16T14:30:49;7.10;;;4.00;;
59492;SDS011;45497;43.996;22.876;2022-10-16T14:38:35;8.95;;;4.00;;
59492;SDS011;45497;43.996;22.876;2022-10-16T14:41:01;6.50;;;4.05;;
59492;SDS011;45497;43.996;22.876;2022-10-16T14:45:07;6.63;;;3.92;;
59492;SDS011;45497;43.996;22.876;2022-10-16T14:47:34;9.18;;;4.10;;
59492;SDS011;45497;43.996;22.876;2022-10-16T14:50:13;8.55;;;4.35;;
59492;SDS011;45497;43.996;22.876;2022-10-16T14:52:38;6.83;;;4.10;;
59492;SDS011;45497;43.996;22.876;2022-10-16T14:55:04;7.28;;;3.97;;
59492;SDS011;45497;43.996;22.876;2022-10-16T14:57:31;6.80;;;3.65;;
59492;SDS011;45497;43.996;22.876;2022-10-16T14:59:59;7.82;;;3.78;;
59492;SDS011;45497;43.996;22.876;2022-10-16T15:02:27;6.83;;;3.73;;
59492;SDS011;45497;43.996;22.876;2022-10-16T15:04:55;6.38;;;3.75;;
59492;SDS011;45497;43.996;22.876;2022-10-16T15:07:21;6.55;;;4.03;;
59492;SDS011;45497;43.996;22.876;2022-10-16T15:09:47;6.67;;;4.00;;
59492;SDS011;45497;43.996;22.876;2022-10-16T15:12:12;5.20;;;3.80;;
59492;SDS011;45497;43.996;22.876;2022-10-16T15:14:38;9.40;;;3.83;;
59492;SDS011;45497;43.996;22.876;2022-10-16T15:17:03;6.50;;;4.13;;
59492;SDS011;45497;43.996;22.876;2022-10-16T15:19:29;6.43;;;4.10;;
59492;SDS011;45497;43.996;22.876;2022-10-16T15:22:08;6.63;;;4.13;;
59492;SDS011;45497;43.996;22.876;2022-10-16T15:24:36;7.00;;;4.15;;
59492;SDS011;45497;43.996;22.876;2022-10-16T15:27:02;9.23;;;4.40;;
59492;SDS011;45497;43.996;22.876;2022-10-16T15:29:27;8.50;;;4.70;;
59492;SDS011;45497;43.996;22.876;2022-10-16T15:32:17;7.75;;;5.07;;
59492;SDS011;45497;43.996;22.876;2022-10-16T15:34:42;7.70;;;4.63;;
59492;SDS011;45497;43.996;22.876;2022-10-16T15:37:08;9.98;;;4.70;;
59492;SDS011;45497;43.996;22.876;2022-10-16T15:39:34;8.27;;;4.70;;
59492;SDS011;45497;43.996;22.876;2022-10-16T15:41:59;8.75;;;4.93;;
59492;SDS011;45497;43.996;22.876;2022-10-16T15:44:25;9.27;;;5.17;;
59492;SDS011;45497;43.996;22.876;2022-10-16T15:46:54;8.60;;;5.00;;
59492;SDS011;45497;43.996;22.876;2022-10-16T15:49:20;12.20;;;5.10;;
59492;SDS011;45497;43.996;22.876;2022-10-16T15:51:46;13.50;;;5.60;;
59492;SDS011;45497;43.996;22.876;2022-10-16T15:54:11;13.83;;;5.33;;
59492;SDS011;45497;43.996;22.876;2022-10-16T15:56:37;11.67;;;5.80;;
59492;SDS011;45497;43.996;22.876;2022-10-16T15:59:02;9.67;;;6.00;;
59492;SDS011;45497;43.996;22.876;2022-10-16T16:01:28;10.88;;;6.40;;
59492;SDS011;45497;43.996;22.876;2022-10-16T16:03:57;14.40;;;7.93;;
59492;SDS011;45497;43.996;22.876;2022-10-16T16:06:23;13.73;;;7.88;;
59492;SDS011;45497;43.996;22.876;2022-10-16T16:08:49;17.73;;;9.47;;
59492;SDS011;45497;43.996;22.876;2022-10-16T16:11:16;18.40;;;10.07;;
59492;SDS011;45497;43.996;22.876;2022-10-16T16:13:42;15.63;;;9.52;;
59492;SDS011;45497;43.996;22.876;2022-10-16T16:16:08;15.97;;;10.30;;
59492;SDS011;45497;43.996;22.876;2022-10-16T16:18:38;18.73;;;10.90;;
59492;SDS011;45497;43.996;22.876;2022-10-16T16:21:04;18.33;;;10.40;;
59492;SDS011;45497;43.996;22.876;2022-10-16T16:23:30;18.92;;;10.35;;
59492;SDS011;45497;43.996;22.876;2022-10-16T16:26:29;16.53;;;10.70;;
59492;SDS011;45497;43.996;22.876;2022-10-16T16:28:52;17.38;;;11.02;;
59492;SDS011;45497;43.996;22.876;2022-10-16T16:31:18;18.27;;;10.90;;
59492;SDS011;45497;43.996;22.876;2022-10-16T16:35:05;19.10;;;10.25;;
59492;SDS011;45497;43.996;22.876;2022-10-16T16:41:35;15.23;;;10.48;;
59492;SDS011;45497;43.996;22.876;2022-10-16T16:47:59;16.23;;;10.07;;
59492;SDS011;45497;43.996;22.876;2022-10-16T16:51:53;18.67;;;10.45;;
59492;SDS011;45497;43.996;22.876;2022-10-16T16:54:19;17.13;;;10.47;;
59492;SDS011;45497;43.996;22.876;2022-10-16T16:56:44;18.05;;;10.52;;
59492;SDS011;45497;43.996;22.876;2022-10-16T16:59:14;20.13;;;11.18;;
59492;SDS011;45497;43.996;22.876;2022-10-16T17:01:41;17.92;;;10.70;;
59492;SDS011;45497;43.996;22.876;2022-10-16T17:04:07;19.10;;;11.30;;
59492;SDS011;45497;43.996;22.876;2022-10-16T17:10:01;15.88;;;10.07;;
59492;SDS011;45497;43.996;22.876;2022-10-16T17:14:56;18.30;;;11.27;;
59492;SDS011;45497;43.996;22.876;2022-10-16T17:17:21;16.47;;;11.13;;
59492;SDS011;45497;43.996;22.876;2022-10-16T17:22:01;16.92;;;10.43;;
59492;SDS011;45497;43.996;22.876;2022-10-16T17:24:26;20.10;;;11.00;;
59492;SDS011;45497;43.996;22.876;2022-10-16T17:31:29;24.55;;;13.77;;
59492;SDS011;45497;43.996;22.876;2022-10-16T17:35:58;22.73;;;13.10;;
59492;SDS011;45497;43.996;22.876;2022-10-16T17:40:20;22.63;;;13.35;;
59492;SDS011;45497;43.996;22.876;2022-10-16T17:43:19;21.60;;;12.02;;
59492;SDS011;45497;43.996;22.876;2022-10-16T17:45:44;18.83;;;11.77;;
59492;SDS011;45497;43.996;22.876;2022-10-16T17:48:09;20.25;;;12.45;;
59492;SDS011;45497;43.996;22.876;2022-10-16T17:50:38;18.87;;;11.87;;
59492;SDS011;45497;43.996;22.876;2022-10-16T17:53:04;21.50;;;13.00;;
59492;SDS011;45497;43.996;22.876;2022-10-16T17:55:30;19.03;;;11.83;;
59492;SDS011;45497;43.996;22.876;2022-10-16T18:00:09;19.93;;;11.30;;
59492;SDS011;45497;43.996;22.876;2022-10-16T18:02:35;22.67;;;12.32;;
59492;SDS011;45497;43.996;22.876;2022-10-16T18:05:01;20.60;;;12.05;;
59492;SDS011;45497;43.996;22.876;2022-10-16T18:07:30;20.93;;;11.57;;
59492;SDS011;45497;43.996;22.876;2022-10-16T18:09:55;22.23;;;11.70;;
59492;SDS011;45497;43.996;22.876;2022-10-16T18:12:21;20.23;;;11.55;;
59492;SDS011;45497;43.996;22.876;2022-10-16T18:14:46;18.03;;;11.10;;
59492;SDS011;45497;43.996;22.876;2022-10-16T18:17:12;21.73;;;11.90;;
59492;SDS011;45497;43.996;22.876;2022-10-16T18:19:39;53.47;;;48.38;;
59492;SDS011;45497;43.996;22.876;2022-10-16T18:22:04;31.23;;;23.10;;
59492;SDS011;45497;43.996;22.876;2022-10-16T18:24:30;25.70;;;20.48;;
59492;SDS011;45497;43.996;22.876;2022-10-16T18:26:55;56.00;;;50.63;;
59492;SDS011;45497;43.996;22.876;2022-10-16T18:29:22;37.27;;;33.33;;
59492;SDS011;45497;43.996;22.876;2022-10-16T18:32:22;40.90;;;31.95;;
59492;SDS011;45497;43.996;22.876;2022-10-16T18:34:48;29.80;;;17.80;;
59492;SDS011;45497;43.996;22.876;2022-10-16T18:41:13;26.17;;;14.93;;
59492;SDS011;45497;43.996;22.876;2022-10-16T18:43:38;28.63;;;19.85;;